Time;durP1;ratioP1;P1;durP2;ratioP2;P2;SDS_P1;SDS_P2;PMS_P1;PMS_P2;Temp;Humidity;BMP_temperature;BMP_pressure;BME280_temperature;BME280_humidity;BME280_pressure;Samples;Min_cycle;Max_cycle;Signal;HPM_P1;HPM_P2
2023/05/20 00:00:57;;;;;;;6.40;2.17;;;10.10;99.90;9.40;101783;;;;564133;250;24194;-81
2023/05/20 00:03:25;;;;;;;4.80;1.77;;;10.00;99.90;9.30;101777;;;;559952;252;24115;-80
2023/05/20 00:05:53;;;;;;;7.33;1.90;;;10.20;99.90;9.30;101779;;;;559200;253;24144;-81
2023/05/20 00:08:21;;;;;;;4.77;1.57;;;10.30;99.90;9.30;101771;;;;560790;252;24122;-80
2023/05/20 00:10:50;;;;;;;7.33;1.90;;;10.10;99.90;9.30;101768;;;;564241;250;24258;-79
2023/05/20 00:13:18;;;;;;;3.93;1.33;;;10.30;99.90;9.30;101769;;;;559599;252;24148;-79
2023/05/20 00:15:46;;;;;;;6.43;1.83;;;10.00;99.90;9.30;101760;;;;559284;253;24118;-82
2023/05/20 00:18:14;;;;;;;8.67;2.43;;;9.40;99.90;9.30;101769;;;;560376;252;24118;-80
2023/05/20 00:20:42;;;;;;;7.43;2.00;;;10.10;99.90;9.30;101767;;;;572547;250;24105;-80
2023/05/20 00:23:10;;;;;;;7.33;1.80;;;10.00;99.90;9.30;101768;;;;559681;252;24172;-81
2023/05/20 00:25:38;;;;;;;3.83;1.47;;;10.30;99.90;9.30;101770;;;;559114;253;24123;-80
2023/05/20 00:28:06;;;;;;;5.40;1.43;;;10.10;99.90;9.30;101772;;;;560535;252;24175;-79
2023/05/20 00:30:34;;;;;;;6.80;2.03;;;11.20;99.90;9.30;101772;;;;564153;250;24135;-79
2023/05/20 00:33:02;;;;;;;7.57;1.67;;;10.10;99.90;9.30;101774;;;;560007;252;24118;-79
2023/05/20 00:35:30;;;;;;;4.17;1.30;;;9.90;99.90;9.30;101776;;;;560617;252;24110;-82
2023/05/20 00:37:59;;;;;;;6.67;1.90;;;10.10;99.90;9.30;101767;;;;569741;247;24124;-79
2023/05/20 00:40:27;;;;;;;7.23;1.93;;;10.10;99.90;9.30;101762;;;;565235;250;24167;-80
2023/05/20 00:42:55;;;;;;;9.57;2.50;;;10.10;99.90;9.30;101767;;;;560583;252;24124;-79
2023/05/20 00:45:24;;;;;;;8.40;2.07;;;10.10;99.90;9.30;101767;;;;559955;252;24112;-81
2023/05/20 00:47:56;;;;;;;6.40;1.80;;;10.10;99.90;9.30;101762;;;;560756;252;24102;-82
2023/05/20 00:50:21;;;;;;;3.67;1.30;;;10.30;99.90;9.30;101763;;;;564667;250;24147;-80
2023/05/20 00:52:50;;;;;;;5.63;1.63;;;10.10;99.90;9.30;101768;;;;560282;252;25160;-81
2023/05/20 00:55:17;;;;;;;5.63;1.90;;;10.10;99.90;9.30;101768;;;;559854;252;24130;-82
2023/05/20 00:57:45;;;;;;;5.07;1.57;;;10.10;99.90;9.30;101773;;;;560935;252;24150;-81
2023/05/20 01:00:13;;;;;;;8.97;2.57;;;10.20;99.90;9.30;101771;;;;564414;250;24119;-80
2023/05/20 01:02:41;;;;;;;4.13;1.37;;;10.10;99.90;9.30;101771;;;;559934;252;24113;-81
2023/05/20 01:05:09;;;;;;;9.03;2.33;;;10.20;99.90;9.30;101761;;;;559467;252;25176;-82
2023/05/20 01:07:40;;;;;;;10.93;2.67;;;10.10;99.90;9.30;101767;;;;560636;252;24154;-81
2023/05/20 01:10:05;;;;;;;5.87;1.67;;;10.30;99.90;9.30;101759;;;;564562;250;24179;-80
2023/05/20 01:12:35;;;;;;;6.20;1.73;;;10.10;99.90;9.40;101757;;;;560021;252;24134;-79
2023/05/20 01:15:10;;;;;;;4.87;1.63;;;10.20;99.90;9.40;101756;;;;554066;255;24153;-79
2023/05/20 01:17:46;;;;;;;7.37;1.93;;;10.00;99.90;9.40;101759;;;;564694;250;24246;-80
2023/05/20 01:20:15;;;;;;;4.13;1.23;;;10.20;99.90;9.40;101759;;;;559806;252;24153;-79
2023/05/20 01:22:53;;;;;;;5.53;1.70;;;10.20;99.90;9.40;101757;;;;559595;253;24136;-81
2023/05/20 01:25:25;;;;;;;9.00;2.17;;;11.30;99.90;9.40;101758;;;;554793;255;24167;-81
2023/05/20 01:27:52;;;;;;;5.00;1.50;;;10.20;99.90;9.40;101756;;;;564138;250;24217;-81
2023/05/20 01:30:17;;;;;;;10.13;2.47;;;10.20;99.90;9.40;101761;;;;559651;252;24172;-82
2023/05/20 01:32:51;;;;;;;6.97;2.17;;;9.90;99.90;9.40;101757;;;;559465;253;24122;-80
2023/05/20 01:35:19;;;;;;;3.73;1.10;;;10.00;99.90;9.40;101755;;;;560492;252;24122;-79
2023/05/20 01:37:44;;;;;;;7.33;1.80;;;9.90;99.90;9.40;101757;;;;564154;250;24225;-80
2023/05/20 01:40:12;;;;;;;11.33;2.73;;;10.20;99.90;9.40;101754;;;;567978;252;24115;-81
2023/05/20 01:42:40;;;;;;;7.17;2.03;;;9.90;99.90;9.40;101753;;;;559116;253;24182;-80
2023/05/20 01:45:08;;;;;;;6.20;1.93;;;10.40;99.90;9.40;101753;;;;569148;248;24118;-81
2023/05/20 01:47:36;;;;;;;6.27;1.63;;;11.20;99.90;9.40;101745;;;;565741;250;24111;-79
2023/05/20 01:50:03;;;;;;;10.23;2.57;;;10.00;99.90;9.40;101741;;;;560573;252;24183;-81
2023/05/20 01:52:31;;;;;;;7.87;1.97;;;10.10;99.90;9.40;101737;;;;559863;252;24141;-81
2023/05/20 01:55:00;;;;;;;4.70;1.50;;;10.20;99.90;9.40;101728;;;;561316;252;24212;-80
2023/05/20 01:57:31;;;;;;;18.10;4.07;;;10.20;99.90;9.40;101745;;;;564953;250;24108;-80
2023/05/20 01:59:56;;;;;;;14.20;3.27;;;10.40;99.90;9.40;101734;;;;558618;252;24121;-80
2023/05/20 02:02:23;;;;;;;11.27;2.57;;;10.10;99.90;9.50;101737;;;;560028;252;24167;-82
2023/05/20 02:04:51;;;;;;;6.33;1.97;;;10.30;99.90;9.50;101724;;;;561137;252;24169;-82
2023/05/20 02:07:20;;;;;;;5.13;1.63;;;10.30;99.90;9.50;101729;;;;564827;250;24159;-79
2023/05/20 02:09:48;;;;;;;10.10;2.47;;;10.30;99.90;9.50;101727;;;;560293;252;24162;-80
2023/05/20 02:12:16;;;;;;;10.70;2.63;;;10.10;99.90;9.50;101730;;;;559515;252;24129;-80
2023/05/20 02:14:44;;;;;;;11.37;2.73;;;10.30;99.90;9.50;101730;;;;560728;252;25154;-80
2023/05/20 02:17:15;;;;;;;6.20;1.93;;;10.20;99.90;9.60;101732;;;;564423;250;24129;-80
2023/05/20 02:19:40;;;;;;;11.07;2.60;;;10.40;99.90;9.60;101728;;;;554795;252;35642;-80
2023/05/20 02:22:09;;;;;;;21.07;3.97;;;10.40;99.90;9.60;101738;;;;559183;253;24161;-79
2023/05/20 02:24:37;;;;;;;14.53;3.50;;;10.60;99.90;9.60;101731;;;;560384;252;24106;-81
2023/05/20 02:27:07;;;;;;;8.40;2.27;;;10.40;99.90;9.60;101732;;;;564128;250;25178;-81
2023/05/20 02:29:33;;;;;;;9.37;2.63;;;10.40;99.90;9.60;101736;;;;559250;252;24165;-80
2023/05/20 02:32:01;;;;;;;9.40;2.63;;;10.40;99.90;9.50;101722;;;;559270;253;24172;-80
2023/05/20 02:34:32;;;;;;;5.70;1.70;;;10.40;99.90;9.50;101729;;;;560356;252;24134;-81
2023/05/20 02:36:57;;;;;;;10.67;2.90;;;10.00;99.90;9.60;101728;;;;563897;250;24115;-80
2023/05/20 02:39:25;;;;;;;12.90;2.97;;;10.40;99.90;9.60;101728;;;;559531;252;24177;-81
2023/05/20 02:41:53;;;;;;;9.40;2.30;;;10.40;99.90;9.60;101726;;;;559544;253;24187;-80
2023/05/20 02:44:21;;;;;;;18.87;4.27;;;10.40;99.90;9.60;101731;;;;560372;252;24124;-81
2023/05/20 02:46:50;;;;;;;6.50;2.13;;;10.00;99.90;9.50;101729;;;;564240;250;24181;-79
2023/05/20 02:49:18;;;;;;;8.13;2.37;;;10.40;99.90;9.60;101733;;;;559600;252;24160;-80
2023/05/20 02:51:46;;;;;;;7.47;2.10;;;10.30;99.90;9.60;101724;;;;559061;253;24112;-79
2023/05/20 02:54:14;;;;;;;3.20;1.37;;;10.50;99.90;9.60;101725;;;;560388;252;24168;-79
2023/05/20 02:56:42;;;;;;;13.17;3.10;;;10.30;99.90;9.60;101725;;;;564293;248;24210;-80
2023/05/20 02:59:11;;;;;;;10.33;2.80;;;10.40;99.90;9.60;101726;;;;560792;252;24212;-80
2023/05/20 03:01:39;;;;;;;9.30;2.37;;;10.80;99.90;9.60;101723;;;;560069;252;24216;-81
2023/05/20 03:04:06;;;;;;;8.27;2.40;;;10.10;99.90;9.60;101718;;;;561267;252;24139;-80
2023/05/20 03:06:34;;;;;;;9.93;2.50;;;10.30;99.90;9.70;101717;;;;564851;250;24099;-80
2023/05/20 03:09:03;;;;;;;11.93;3.00;;;10.50;99.90;9.70;101715;;;;560040;252;24227;-79
2023/05/20 03:11:31;;;;;;;11.23;2.40;;;10.20;99.90;9.70;101722;;;;560105;252;24166;-80
2023/05/20 03:13:59;;;;;;;10.20;2.57;;;10.50;99.90;9.70;101715;;;;560831;252;24129;-81
2023/05/20 03:16:27;;;;;;;6.90;2.13;;;10.50;99.90;9.70;101720;;;;564567;250;24168;-80
2023/05/20 03:18:55;;;;;;;10.47;3.53;;;10.60;99.90;9.70;101716;;;;559839;252;24128;-79
2023/05/20 03:21:24;;;;;;;5.03;1.63;;;10.70;99.90;9.80;101724;;;;559279;252;24110;-79
2023/05/20 03:23:51;;;;;;;7.33;2.00;;;10.50;99.90;9.80;101719;;;;560516;252;24184;-80
2023/05/20 03:26:20;;;;;;;17.90;4.23;;;10.60;99.90;9.80;101714;;;;564320;250;24149;-81
2023/05/20 03:28:47;;;;;;;8.07;2.43;;;10.40;99.90;9.80;101718;;;;559915;252;24138;-81
2023/05/20 03:31:15;;;;;;;4.47;1.60;;;10.30;99.90;9.80;101719;;;;559373;252;24103;-80
2023/05/20 03:33:44;;;;;;;5.90;1.83;;;10.60;99.90;9.80;101718;;;;560862;252;24146;-81
2023/05/20 03:36:11;;;;;;;3.23;1.27;;;10.90;99.90;9.90;101711;;;;564179;250;24122;-79
2023/05/20 03:38:38;;;;;;;5.93;2.00;;;10.70;99.90;9.90;101714;;;;559515;252;24126;-80
2023/05/20 03:41:06;;;;;;;8.63;1.80;;;10.80;99.90;9.90;101726;;;;559568;253;24124;-80
2023/05/20 03:43:35;;;;;;;4.40;1.20;;;10.70;99.90;10.00;101721;;;;560692;252;24111;-80
2023/05/20 03:46:04;;;;;;;5.17;1.90;;;10.80;99.90;10.00;101718;;;;564315;250;24246;-79
2023/05/20 03:48:36;;;;;;;7.37;2.10;;;10.80;99.90;10.10;101727;;;;559585;252;24148;-81
2023/05/20 03:51:00;;;;;;;6.77;2.03;;;11.00;99.90;10.10;101721;;;;558817;253;24150;-81
2023/05/20 03:53:28;;;;;;;6.73;2.20;;;11.00;99.90;10.10;101724;;;;560447;252;24137;-81
2023/05/20 03:55:57;;;;;;;8.13;2.20;;;10.90;99.90;10.20;101726;;;;564036;250;24171;-81
2023/05/20 03:58:25;;;;;;;5.40;1.67;;;11.00;99.90;10.20;101726;;;;559570;252;24165;-81
2023/05/20 04:00:53;;;;;;;13.17;3.17;;;11.10;99.90;10.20;101728;;;;559103;253;24170;-80
2023/05/20 04:03:21;;;;;;;8.40;2.53;;;11.10;99.90;10.20;101730;;;;560499;252;24110;-82
2023/05/20 04:05:49;;;;;;;7.77;2.43;;;11.00;99.90;10.30;101733;;;;563982;250;24123;-80
2023/05/20 04:08:18;;;;;;;12.93;3.27;;;11.10;99.90;10.30;101721;;;;562741;253;24136;-80
2023/05/20 04:10:50;;;;;;;4.10;1.67;;;11.10;99.90;10.40;101719;;;;565653;250;24200;-80
2023/05/20 04:13:16;;;;;;;4.60;1.50;;;11.20;99.90;10.40;101722;;;;560873;254;24273;-79
2023/05/20 04:15:44;;;;;;;6.78;2.03;;;11.30;99.90;10.50;101723;;;;560065;250;35442;-79
2023/05/20 04:18:16;;;;;;;4.75;2.05;;;11.50;99.90;10.70;101727;;;;555307;252;35461;-79
2023/05/20 04:20:44;;;;;;;6.87;2.17;;;11.60;99.90;10.80;101731;;;;554928;254;24141;-79
2023/05/20 04:23:09;;;;;;;5.90;2.00;;;12.60;99.90;10.90;101728;;;;554593;254;24152;-80
2023/05/20 04:25:41;;;;;;;7.77;2.27;;;11.80;99.90;11.10;101733;;;;564616;250;24096;-81
2023/05/20 04:28:09;;;;;;;4.57;1.77;;;12.20;99.90;11.10;101729;;;;558209;252;24114;-81
2023/05/20 04:30:34;;;;;;;10.07;2.70;;;12.20;99.90;11.20;101726;;;;559353;252;24143;-81
2023/05/20 04:33:03;;;;;;;7.15;2.35;;;12.00;99.90;11.20;101722;;;;555881;252;35423;-81
2023/05/20 04:35:32;;;;;;;8.23;2.33;;;11.90;99.90;11.20;101723;;;;564389;250;24118;-80
2023/05/20 04:37:59;;;;;;;4.97;1.73;;;12.00;99.90;11.30;101723;;;;554631;255;24139;-79
2023/05/20 04:40:27;;;;;;;7.30;1.90;;;12.00;99.90;11.30;101722;;;;564445;250;24124;-81
2023/05/20 04:42:57;;;;;;;8.80;2.37;;;12.10;99.90;11.30;101725;;;;560216;252;24105;-81
2023/05/20 04:45:23;;;;;;;5.73;1.90;;;11.90;99.90;11.30;101724;;;;554731;255;24155;-80
2023/05/20 04:47:52;;;;;;;5.30;2.10;;;12.00;99.90;11.30;101732;;;;563937;250;24150;-80
2023/05/20 04:50:20;;;;;;;7.73;2.27;;;12.00;99.90;11.40;101721;;;;559639;252;24099;-80
2023/05/20 04:52:49;;;;;;;4.23;1.63;;;12.20;99.90;11.50;101726;;;;554374;255;24198;-80
2023/05/20 04:55:17;;;;;;;7.83;1.97;;;12.30;99.90;11.50;101731;;;;563941;250;24113;-79
2023/05/20 04:57:45;;;;;;;7.20;1.90;;;12.30;99.90;11.60;101723;;;;554365;255;24193;-80
2023/05/20 05:00:16;;;;;;;8.53;2.60;;;12.50;99.90;11.70;101730;;;;565304;252;24103;-81
2023/05/20 05:02:42;;;;;;;4.33;2.03;;;12.20;99.90;11.70;101737;;;;554144;255;24253;-82
2023/05/20 05:05:14;;;;;;;7.15;2.35;;;12.50;99.90;11.80;101738;;;;549660;255;35655;-82
2023/05/20 05:07:38;;;;;;;4.90;2.10;;;12.60;99.90;11.80;101731;;;;559551;252;24137;-81
2023/05/20 05:10:11;;;;;;;6.23;2.27;;;12.60;99.90;11.80;101738;;;;559150;253;24163;-81
2023/05/20 05:12:35;;;;;;;9.60;2.40;;;12.80;99.90;11.90;101743;;;;559792;252;24234;-80
2023/05/20 05:15:03;;;;;;;14.53;3.90;;;11.90;99.90;12.00;101740;;;;564437;250;24153;-80
2023/05/20 05:17:31;;;;;;;8.67;2.67;;;12.90;99.90;12.10;101739;;;;559491;252;24109;-79
2023/05/20 05:20:00;;;;;;;9.70;2.97;;;12.90;99.90;12.20;101744;;;;559626;251;24161;-81
2023/05/20 05:22:28;;;;;;;8.83;2.77;;;13.10;99.90;12.20;101745;;;;561699;252;24163;-80
2023/05/20 05:24:57;;;;;;;5.67;2.17;;;12.70;99.90;12.30;101747;;;;565056;250;24129;-81
2023/05/20 05:27:24;;;;;;;7.47;2.60;;;13.10;99.90;12.40;101739;;;;555160;254;24132;-81
2023/05/20 05:29:52;;;;;;;12.77;2.90;;;13.50;99.90;12.50;101738;;;;564775;250;24095;-80
2023/05/20 05:32:20;;;;;;;7.10;2.50;;;13.40;99.90;12.60;101753;;;;560122;252;24116;-80
2023/05/20 05:34:52;;;;;;;5.80;1.93;;;13.30;99.90;12.60;101740;;;;559639;252;24165;-80
2023/05/20 05:37:16;;;;;;;5.87;1.97;;;13.00;99.90;12.60;101742;;;;561101;252;24227;-79
2023/05/20 05:39:44;;;;;;;4.87;1.73;;;13.40;99.90;12.60;101738;;;;564541;250;24118;-81
2023/05/20 05:42:12;;;;;;;9.10;3.10;;;13.30;99.90;12.60;101741;;;;559859;252;24156;-80
2023/05/20 05:44:44;;;;;;;7.13;2.77;;;13.40;99.90;12.60;101746;;;;559896;252;24144;-80
2023/05/20 05:47:11;;;;;;;5.40;2.00;;;13.30;99.90;12.60;101745;;;;560513;252;24154;-80
2023/05/20 05:49:36;;;;;;;7.70;2.77;;;13.20;99.90;12.60;101746;;;;564385;250;24163;-80
2023/05/20 05:52:05;;;;;;;6.17;2.03;;;13.30;99.90;12.60;101748;;;;559791;252;24152;-82
2023/05/20 05:54:33;;;;;;;12.03;3.47;;;13.30;99.90;12.60;101751;;;;559552;252;24118;-80
2023/05/20 05:57:01;;;;;;;8.77;3.03;;;13.30;99.90;12.60;101753;;;;560525;252;24113;-80
2023/05/20 05:59:29;;;;;;;10.70;2.70;;;13.10;99.90;12.60;101749;;;;564041;250;24111;-80
2023/05/20 06:01:58;;;;;;;7.57;2.60;;;13.30;99.90;12.70;101748;;;;559589;252;24157;-80
2023/05/20 06:04:26;;;;;;;6.53;2.63;;;13.30;99.90;12.60;101751;;;;559153;253;24118;-80
2023/05/20 06:06:54;;;;;;;10.83;3.17;;;13.30;99.90;12.60;101745;;;;560540;252;24153;-80
2023/05/20 06:09:22;;;;;;;6.40;2.70;;;13.50;99.90;12.50;101743;;;;564181;250;24116;-81
2023/05/20 06:11:51;;;;;;;16.07;4.23;;;13.20;99.90;12.50;101740;;;;559547;252;24192;-82
2023/05/20 06:14:19;;;;;;;11.03;2.90;;;13.00;99.90;12.40;101738;;;;562162;251;24126;-80
2023/05/20 06:16:48;;;;;;;7.87;2.60;;;13.10;99.90;12.40;101734;;;;564557;250;24124;-82
2023/05/20 06:19:16;;;;;;;10.27;3.07;;;13.20;99.90;12.50;101738;;;;559810;252;24149;-81
2023/05/20 06:21:43;;;;;;;10.97;3.63;;;13.30;99.90;12.60;101734;;;;559258;253;24106;-81
2023/05/20 06:24:11;;;;;;;11.63;3.47;;;13.40;99.90;12.70;101739;;;;560800;252;24095;-84
2023/05/20 06:26:39;;;;;;;8.30;2.27;;;13.50;99.90;13.00;101738;;;;564266;250;24174;-81
2023/05/20 06:29:07;;;;;;;7.37;2.03;;;14.00;99.90;13.20;101738;;;;559628;252;24132;-81
2023/05/20 06:31:36;;;;;;;10.27;3.27;;;14.20;99.90;13.60;101738;;;;562416;251;24143;-80
2023/05/20 06:34:04;;;;;;;11.00;3.27;;;14.40;99.90;13.80;101743;;;;565470;250;24159;-79
2023/05/20 06:36:33;;;;;;;8.30;3.00;;;14.70;99.90;14.00;101754;;;;560602;252;24197;-80
2023/05/20 06:39:00;;;;;;;16.03;4.50;;;15.10;99.90;14.10;101752;;;;559983;252;24231;-80
2023/05/20 06:41:28;;;;;;;7.93;3.13;;;15.10;99.90;14.30;101747;;;;560926;252;24169;-79
2023/05/20 06:43:57;;;;;;;11.03;3.10;;;15.10;99.90;14.50;101748;;;;564819;250;24158;-80
2023/05/20 06:46:25;;;;;;;7.43;3.33;;;15.40;99.90;14.80;101750;;;;560521;252;24189;-80
2023/05/20 06:48:54;;;;;;;10.50;2.87;;;15.80;99.90;15.20;101753;;;;560108;252;24106;-80
2023/05/20 06:51:22;;;;;;;5.63;2.80;;;16.50;99.90;15.80;101751;;;;560695;252;24142;-80
2023/05/20 06:53:53;;;;;;;7.63;3.43;;;16.90;99.90;16.20;101749;;;;564608;250;24119;-81
2023/05/20 06:56:18;;;;;;;6.67;2.93;;;17.10;99.90;16.60;101739;;;;559667;252;24198;-80
2023/05/20 06:58:46;;;;;;;7.20;3.03;;;17.70;99.90;17.00;101744;;;;559388;252;24111;-81
2023/05/20 07:01:14;;;;;;;3.63;2.00;;;18.10;99.90;17.40;101740;;;;560954;252;24126;-83
2023/05/20 07:03:43;;;;;;;15.53;3.60;;;18.50;99.90;18.20;101742;;;;564807;250;24110;-81
2023/05/20 07:06:14;;;;;;;6.07;3.23;;;19.70;99.90;19.30;101738;;;;554943;255;24199;-80
2023/05/20 07:08:42;;;;;;;6.00;3.00;;;20.00;99.90;19.90;101745;;;;572621;250;24128;-80
2023/05/20 07:11:07;;;;;;;4.97;2.70;;;20.70;99.90;20.00;101749;;;;557717;252;24119;-80
2023/05/20 07:13:34;;;;;;;5.10;2.87;;;21.30;99.90;20.20;101743;;;;559583;253;23148;-81
2023/05/20 07:16:03;;;;;;;10.30;3.07;;;21.10;99.90;20.40;101743;;;;560722;252;24111;-81
2023/05/20 07:18:31;;;;;;;6.20;2.90;;;21.40;99.90;20.60;101744;;;;572772;250;24105;-80
2023/05/20 07:20:59;;;;;;;10.23;4.33;;;21.30;99.90;20.50;101744;;;;559496;252;24119;-80
2023/05/20 07:23:27;;;;;;;8.93;3.07;;;21.40;99.90;20.60;101746;;;;559311;253;24108;-80
2023/05/20 07:25:55;;;;;;;8.23;2.93;;;21.70;99.90;21.20;101745;;;;560380;252;24118;-81
2023/05/20 07:28:23;;;;;;;8.07;3.20;;;22.20;99.90;21.70;101739;;;;564072;250;23185;-84
2023/05/20 07:30:51;;;;;;;5.43;2.67;;;22.50;99.90;21.80;101743;;;;559670;252;24111;-81
2023/05/20 07:33:19;;;;;;;4.33;2.70;;;22.40;99.90;21.80;101749;;;;559193;253;24123;-81
2023/05/20 07:35:46;;;;;;;8.23;3.10;;;22.60;99.00;21.90;101742;;;;560425;252;24180;-80
2023/05/20 07:38:15;;;;;;;4.97;2.53;;;22.80;96.30;22.10;101736;;;;564119;250;23118;-80
2023/05/20 07:40:43;;;;;;;12.53;3.57;;;22.40;96.20;21.80;101739;;;;559687;252;23127;-80
2023/05/20 07:43:11;;;;;;;5.97;2.33;;;22.60;96.40;21.40;101730;;;;558136;251;23177;-80
2023/05/20 07:45:39;;;;;;;5.67;2.87;;;22.00;97.40;21.20;101738;;;;561571;252;23261;-80
2023/05/20 07:48:07;;;;;;;8.37;2.90;;;22.00;96.80;21.20;101737;;;;565402;250;24113;-82
2023/05/20 07:50:35;;;;;;;3.63;2.40;;;21.30;96.40;21.10;101742;;;;555334;254;24178;-79
2023/05/20 07:53:03;;;;;;;8.20;3.47;;;21.60;95.80;21.10;101744;;;;563264;250;24148;-80
2023/05/20 07:55:31;;;;;;;8.93;3.50;;;21.90;96.20;21.20;101733;;;;564728;250;24146;-81
2023/05/20 07:57:59;;;;;;;7.00;3.20;;;22.10;95.30;21.50;101743;;;;554651;254;25203;-80
2023/05/20 08:00:27;;;;;;;13.33;4.33;;;22.50;94.40;21.90;101742;;;;565164;250;23125;-80
2023/05/20 08:02:56;;;;;;;4.63;2.63;;;22.70;93.50;22.10;101736;;;;564826;245;24127;-80
2023/05/20 08:05:24;;;;;;;8.37;2.87;;;22.70;93.50;22.40;101742;;;;560187;252;23186;-81
2023/05/20 08:07:52;;;;;;;6.67;2.90;;;23.40;92.20;22.80;101740;;;;559760;252;24146;-81
2023/05/20 08:10:20;;;;;;;6.13;2.97;;;23.80;91.40;23.30;101745;;;;561035;252;24140;-80
2023/05/20 08:12:48;;;;;;;4.70;2.80;;;24.40;90.10;23.90;101748;;;;564593;250;24166;-80
2023/05/20 08:15:16;;;;;;;3.93;2.53;;;24.40;90.10;24.40;101742;;;;559907;252;23107;-81
2023/05/20 08:17:44;;;;;;;11.73;3.47;;;25.30;84.00;24.80;101735;;;;559502;252;23146;-80
2023/05/20 08:20:14;;;;;;;4.13;2.30;;;25.30;84.60;25.30;101738;;;;560860;252;24174;-80
2023/05/20 08:22:40;;;;;;;8.60;2.90;;;25.90;83.30;25.40;101727;;;;564299;250;23180;-81
2023/05/20 08:25:08;;;;;;;6.57;3.40;;;26.00;79.10;25.20;101730;;;;559528;252;24187;-79
2023/05/20 08:27:37;;;;;;;7.80;3.63;;;25.90;79.30;25.20;101738;;;;562377;255;24208;-80
2023/05/20 08:30:08;;;;;;;9.23;3.80;;;26.50;75.80;26.10;101735;;;;564374;250;23149;-80
2023/05/20 08:32:34;;;;;;;3.93;2.63;;;26.50;75.70;26.60;101743;;;;563994;250;24108;-81
2023/05/20 08:35:02;;;;;;;4.83;3.60;;;27.30;72.20;26.70;101739;;;;559772;252;23134;-81
2023/05/20 08:37:30;;;;;;;5.40;2.83;;;27.30;71.20;26.60;101736;;;;567601;253;23171;-81
2023/05/20 08:39:58;;;;;;;7.00;3.03;;;27.40;70.80;26.70;101742;;;;560931;252;23132;-80
2023/05/20 08:42:26;;;;;;;6.37;3.17;;;27.40;68.50;26.40;101731;;;;564212;250;24121;-80
2023/05/20 08:44:54;;;;;;;3.93;2.60;;;27.50;68.10;26.40;101746;;;;559559;252;23143;-79
2023/05/20 08:47:25;;;;;;;8.60;3.27;;;27.00;68.20;25.90;101738;;;;554511;255;24181;-80
2023/05/20 08:49:50;;;;;;;7.83;3.60;;;26.40;69.70;25.70;101737;;;;563223;250;23176;-80
2023/05/20 08:52:18;;;;;;;9.07;3.87;;;26.40;68.90;25.20;101734;;;;554249;255;24161;-81
2023/05/20 08:54:47;;;;;;;5.23;3.33;;;25.60;71.20;24.60;101733;;;;564327;248;24143;-81
2023/05/20 08:57:17;;;;;;;7.07;3.40;;;24.90;71.40;23.80;101739;;;;555344;254;24198;-81
2023/05/20 08:59:45;;;;;;;9.20;4.37;;;24.20;73.80;23.10;101733;;;;555292;254;23186;-82
2023/05/20 09:02:13;;;;;;;7.57;3.73;;;24.20;74.60;22.70;101729;;;;565173;250;23171;-81
2023/05/20 09:04:41;;;;;;;8.23;3.37;;;23.40;77.50;22.70;101736;;;;565092;250;24171;-80
2023/05/20 09:07:09;;;;;;;13.90;4.03;;;23.00;77.60;22.50;101745;;;;564988;250;23121;-80
2023/05/20 09:09:37;;;;;;;9.60;3.60;;;23.00;78.20;22.40;101735;;;;564928;250;23161;-81
2023/05/20 09:12:10;;;;;;;15.50;4.70;;;23.00;79.70;22.30;101734;;;;564924;250;24099;-81
2023/05/20 09:14:35;;;;;;;4.17;3.10;;;22.80;80.20;21.90;101730;;;;564334;250;24157;-81
2023/05/20 09:17:03;;;;;;;7.73;2.80;;;22.30;79.90;21.50;101740;;;;564864;250;23172;-82
2023/05/20 09:19:31;;;;;;;4.67;2.87;;;22.00;81.70;21.10;101739;;;;564287;250;24151;-81
2023/05/20 09:21:59;;;;;;;7.57;3.67;;;22.10;83.70;20.80;101742;;;;564385;250;24222;-81
2023/05/20 09:24:27;;;;;;;7.80;3.97;;;21.30;85.00;20.50;101734;;;;562689;255;23203;-80
2023/05/20 09:26:58;;;;;;;5.67;3.00;;;21.20;86.10;20.40;101729;;;;564778;250;24100;-82
2023/05/20 09:29:23;;;;;;;5.00;2.90;;;20.80;87.30;20.60;101727;;;;559690;252;24128;-81
2023/05/20 09:31:52;;;;;;;4.83;3.20;;;21.60;86.20;21.00;101734;;;;559151;253;24158;-82
2023/05/20 09:34:22;;;;;;;7.87;3.37;;;21.40;85.20;21.30;101741;;;;560433;252;24229;-80
2023/05/20 09:36:47;;;;;;;8.07;3.53;;;21.80;85.60;21.70;101725;;;;563583;250;24124;-84
2023/05/20 09:39:15;;;;;;;8.30;3.77;;;22.70;81.20;22.40;101737;;;;554432;255;24147;-80
2023/05/20 09:41:49;;;;;;;4.50;3.20;;;23.50;79.60;23.00;101729;;;;564241;250;24142;-81
2023/05/20 09:44:17;;;;;;;10.60;3.30;;;24.00;79.20;23.30;101732;;;;555803;252;24124;-80
2023/05/20 09:46:46;;;;;;;12.47;3.80;;;24.40;78.80;23.60;101732;;;;562630;255;24154;-82
2023/05/20 09:49:17;;;;;;;5.77;3.03;;;24.40;77.30;23.50;101740;;;;564048;250;23130;-81
2023/05/20 09:51:43;;;;;;;9.03;3.90;;;24.00;75.20;23.30;101729;;;;564475;250;24197;-80
2023/05/20 09:54:11;;;;;;;11.23;4.30;;;23.70;76.70;22.80;101736;;;;559785;252;23206;-81
2023/05/20 09:56:39;;;;;;;8.93;3.77;;;23.00;78.50;22.00;101730;;;;559229;253;24162;-80
2023/05/20 09:59:07;;;;;;;10.87;4.27;;;22.30;80.20;21.20;101737;;;;554208;255;23171;-81
2023/05/20 10:01:35;;;;;;;6.50;3.47;;;21.40;82.80;20.40;101737;;;;571300;247;24162;-80
2023/05/20 10:04:04;;;;;;;9.87;4.73;;;20.80;86.50;19.90;101731;;;;564196;250;26347;-81
2023/05/20 10:06:58;;;;;;;11.43;4.47;;;20.70;87.40;19.60;101730;;;;554643;254;24143;-80
2023/05/20 10:09:45;;;;;;;11.40;4.30;;;19.90;90.00;19.20;101722;;;;543070;260;24177;-80
2023/05/20 10:12:25;;;;;;;10.03;4.30;;;19.70;90.80;18.90;101729;;;;553336;250;24152;-80
2023/05/20 10:15:17;;;;;;;9.63;4.30;;;19.30;91.30;18.60;101729;;;;554965;254;24198;-80
2023/05/20 10:18:14;;;;;;;;;;;;;;;;;;;;;
2023/05/20 10:20:33;;;;;;;17.93;4.37;;;18.60;92.70;17.90;101735;;;;564331;250;24131;-80
2023/05/20 10:23:01;;;;;;;6.60;3.13;;;18.10;93.50;17.40;101744;;;;560368;252;24128;-80
2023/05/20 10:25:36;;;;;;;17.00;4.87;;;17.70;94.90;17.00;101744;;;;559677;252;24160;-79
2023/05/20 10:28:07;;;;;;;6.97;3.43;;;17.30;95.80;16.50;101731;;;;560760;252;24153;-78
2023/05/20 10:30:41;;;;;;;11.23;4.27;;;16.80;97.40;16.10;101731;;;;563355;250;24109;-80
2023/05/20 10:33:12;;;;;;;10.97;2.70;;;16.40;99.90;15.90;101727;;;;553744;255;24154;-80
2023/05/20 10:35:40;;;;;;;12.47;2.70;;;16.60;99.90;15.60;101723;;;;564285;250;24143;-80
2023/05/20 10:38:11;;;;;;;12.73;3.83;;;15.80;99.90;15.30;101715;;;;553950;255;24162;-80
2023/05/20 10:40:42;;;;;;;7.03;2.93;;;16.00;99.90;15.10;101727;;;;563436;250;23189;-80
2023/05/20 10:43:14;;;;;;;5.80;3.00;;;15.60;99.90;15.00;101725;;;;559828;252;24118;-80
2023/05/20 10:46:00;;;;;;;8.40;3.53;;;15.70;99.90;14.90;101720;;;;553325;255;24151;-79
2023/05/20 10:48:27;;;;;;;18.53;5.63;;;15.50;99.90;15.00;101712;;;;559434;255;24150;-79
2023/05/20 10:50:58;;;;;;;7.97;3.37;;;15.90;99.90;15.10;101716;;;;564540;246;24212;-81
2023/05/20 10:53:26;;;;;;;7.20;2.93;;;15.80;99.90;15.30;101701;;;;559277;252;24137;-79
2023/05/20 10:55:57;;;;;;;5.10;2.80;;;16.20;99.90;15.40;101716;;;;571793;250;24182;-79
2023/05/20 10:58:30;;;;;;;6.47;3.30;;;16.00;99.90;15.60;101702;;;;564017;250;24134;-81
2023/05/20 11:00:50;;;;;;;6.10;2.90;;;16.30;99.90;15.70;101709;;;;559583;252;24165;-79
2023/05/20 11:03:19;;;;;;;54.43;12.80;;;16.50;99.90;16.00;101703;;;;552949;255;24140;-79
2023/05/20 11:05:49;;;;;;;6.20;3.13;;;16.90;99.90;16.40;101691;;;;564175;250;24108;-80
2023/05/20 11:08:14;;;;;;;9.40;4.27;;;17.50;99.90;16.90;101686;;;;554207;255;24222;-79
2023/05/20 11:10:45;;;;;;;6.97;3.40;;;18.00;99.90;17.50;101685;;;;562684;255;24161;-80
2023/05/20 11:13:11;;;;;;;6.50;2.90;;;18.50;99.90;18.00;101679;;;;559645;252;23153;-79
2023/05/20 11:15:45;;;;;;;10.03;3.70;;;18.90;99.90;18.50;101677;;;;559308;253;24154;-79
2023/05/20 11:18:13;;;;;;;4.83;3.00;;;19.60;99.90;19.00;101687;;;;560754;251;24132;-80